Time;durP1;ratioP1;P1;durP2;ratioP2;P2;SDS_P1;SDS_P2;PMS_P1;PMS_P2;Temp;Humidity;BMP_temperature;BMP_pressure;BME280_temperature;BME280_humidity;BME280_pressure;Samples;Min_cycle;Max_cycle;Signal;HPM_P1;HPM_P2
2022/03/20 00:00:53;;;;;;;11.00;5.18;;;6.00;99.90;;;;;;5052837;28;20032;-72
2022/03/20 00:03:21;;;;;;;10.70;5.50;;;6.00;99.90;;;;;;5055649;28;20397;-72
2022/03/20 00:05:48;;;;;;;7.65;5.38;;;6.00;99.90;;;;;;5039021;28;20565;-72
2022/03/20 00:08:14;;;;;;;11.52;5.50;;;5.80;99.90;;;;;;5075631;28;20487;-72
2022/03/20 00:10:49;;;;;;;10.30;5.57;;;5.80;99.90;;;;;;5064017;28;20133;-72
2022/03/20 00:13:18;;;;;;;10.10;5.65;;;5.80;99.90;;;;;;5078384;28;20033;-72
2022/03/20 00:15:45;;;;;;;12.73;5.47;;;5.70;99.90;;;;;;5055922;28;20488;-72
2022/03/20 00:18:12;;;;;;;10.25;5.88;;;5.60;99.90;;;;;;5070742;28;20567;-71
2022/03/20 00:20:47;;;;;;;10.55;5.60;;;5.60;99.90;;;;;;5058187;28;20111;-72
2022/03/20 00:23:13;;;;;;;9.05;5.45;;;5.60;99.90;;;;;;5056562;28;20036;-72
2022/03/20 00:25:44;;;;;;;10.68;5.88;;;5.60;99.90;;;;;;5061591;28;20483;-72
2022/03/20 00:28:12;;;;;;;8.63;5.72;;;5.60;99.90;;;;;;5061159;28;20677;-73
2022/03/20 00:30:38;;;;;;;11.02;5.35;;;5.50;99.90;;;;;;5055865;28;20929;-71
2022/03/20 00:33:05;;;;;;;11.20;5.40;;;5.50;99.90;;;;;;5042195;28;20408;-71
2022/03/20 00:35:31;;;;;;;9.13;5.78;;;5.50;99.90;;;;;;5061914;28;20518;-72
2022/03/20 00:37:57;;;;;;;9.15;5.90;;;5.50;99.90;;;;;;5080317;28;20430;-72
2022/03/20 00:40:23;;;;;;;11.13;5.80;;;5.50;99.90;;;;;;5061875;28;20501;-71
2022/03/20 00:42:49;;;;;;;11.00;5.63;;;5.50;99.90;;;;;;5060352;28;20500;-72
2022/03/20 00:45:15;;;;;;;11.27;5.60;;;5.40;99.90;;;;;;5065881;28;20031;-72
2022/03/20 00:47:41;;;;;;;11.63;6.07;;;5.40;99.90;;;;;;5060257;28;20044;-72
2022/03/20 00:50:07;;;;;;;9.98;6.03;;;5.50;99.90;;;;;;5012758;28;20072;-72
2022/03/20 00:52:34;;;;;;;11.15;5.82;;;5.40;99.90;;;;;;5054649;28;20492;-72
2022/03/20 00:54:59;;;;;;;11.55;6.45;;;5.40;99.90;;;;;;5075315;28;20037;-72
2022/03/20 00:57:26;;;;;;;10.98;6.15;;;5.40;99.90;;;;;;5059521;28;20036;-71
2022/03/20 00:59:51;;;;;;;10.95;5.97;;;5.30;99.90;;;;;;5034961;28;20062;-71
2022/03/20 01:02:17;;;;;;;10.88;6.70;;;5.30;99.90;;;;;;5025833;28;20489;-73
2022/03/20 01:04:43;;;;;;;10.23;6.18;;;5.20;99.90;;;;;;5061835;28;20072;-72
2022/03/20 01:07:08;;;;;;;13.15;6.45;;;5.10;99.90;;;;;;5081612;28;20043;-72
2022/03/20 01:09:34;;;;;;;11.27;6.57;;;5.10;99.90;;;;;;5060750;28;20089;-72
2022/03/20 01:12:01;;;;;;;9.25;6.40;;;5.10;99.90;;;;;;5055019;28;20052;-72
2022/03/20 01:14:27;;;;;;;12.93;6.75;;;5.00;99.90;;;;;;5055708;28;20684;-73
2022/03/20 01:16:54;;;;;;;10.45;6.20;;;5.00;99.90;;;;;;5062569;28;20492;-72
2022/03/20 01:19:21;;;;;;;10.40;6.53;;;5.00;99.90;;;;;;5058094;28;20044;-72
2022/03/20 01:21:47;;;;;;;12.70;7.05;;;4.90;99.90;;;;;;5041713;28;20051;-72
2022/03/20 01:24:13;;;;;;;12.18;6.75;;;4.90;99.90;;;;;;5055808;28;20049;-73
2022/03/20 01:26:38;;;;;;;10.98;6.88;;;4.80;99.90;;;;;;5054618;28;20040;-72
2022/03/20 01:29:07;;;;;;;12.38;7.03;;;4.70;99.90;;;;;;5057206;28;20036;-71
2022/03/20 01:31:34;;;;;;;15.02;7.65;;;4.70;99.90;;;;;;5026144;28;20205;-72
2022/03/20 01:34:00;;;;;;;12.93;7.20;;;4.70;99.90;;;;;;5050663;28;20044;-72
2022/03/20 01:36:26;;;;;;;10.35;6.80;;;4.60;99.90;;;;;;5054399;28;20497;-72
2022/03/20 01:38:53;;;;;;;12.52;6.95;;;4.50;99.90;;;;;;5052119;28;20481;-72
2022/03/20 01:41:19;;;;;;;12.63;6.97;;;4.50;99.90;;;;;;5056873;28;20036;-70
2022/03/20 01:43:54;;;;;;;10.77;7.25;;;4.40;99.90;;;;;;5056842;28;20098;-72
2022/03/20 01:46:21;;;;;;;10.57;7.38;;;4.40;99.90;;;;;;5068138;28;20060;-72
2022/03/20 01:48:49;;;;;;;16.05;7.30;;;4.30;99.90;;;;;;5056360;28;20036;-73
2022/03/20 01:51:15;;;;;;;12.13;7.80;;;4.30;99.90;;;;;;5056014;28;20111;-72
2022/03/20 01:53:41;;;;;;;12.15;7.45;;;4.30;99.90;;;;;;5053679;28;20075;-72
2022/03/20 01:56:07;;;;;;;11.15;7.20;;;4.30;99.90;;;;;;5055209;28;20051;-72
2022/03/20 01:58:34;;;;;;;12.05;7.03;;;4.30;99.90;;;;;;5037767;28;20048;-72
2022/03/20 02:01:00;;;;;;;11.55;7.82;;;4.20;99.90;;;;;;5039484;28;20127;-72
2022/03/20 02:03:26;;;;;;;12.25;7.85;;;4.20;99.90;;;;;;5055465;28;20037;-73
2022/03/20 02:05:53;;;;;;;13.57;8.07;;;4.20;99.90;;;;;;5053702;28;20097;-72
2022/03/20 02:08:25;;;;;;;12.05;7.13;;;4.20;99.90;;;;;;5058304;28;20959;-73
2022/03/20 02:10:52;;;;;;;15.98;7.80;;;4.20;99.90;;;;;;5023672;28;20504;-72
2022/03/20 02:13:23;;;;;;;15.50;7.85;;;4.10;99.90;;;;;;5057187;28;20036;-72
2022/03/20 02:15:53;;;;;;;14.27;7.70;;;4.10;99.90;;;;;;5052192;28;20548;-71
2022/03/20 02:18:19;;;;;;;13.48;8.18;;;4.10;99.90;;;;;;5040970;28;20395;-72
2022/03/20 02:20:48;;;;;;;13.38;8.02;;;4.10;99.90;;;;;;5055307;28;20049;-73
2022/03/20 02:23:15;;;;;;;12.90;8.10;;;4.10;99.90;;;;;;5039425;28;20094;-73
2022/03/20 02:25:51;;;;;;;13.10;8.15;;;4.10;99.90;;;;;;5054611;28;20040;-73
2022/03/20 02:28:17;;;;;;;17.33;9.30;;;4.10;99.90;;;;;;5054140;28;20040;-73
2022/03/20 02:30:45;;;;;;;13.43;8.75;;;4.10;99.90;;;;;;5061347;28;20036;-72
2022/03/20 02:33:10;;;;;;;16.33;8.70;;;4.00;99.90;;;;;;5071712;28;20048;-71
2022/03/20 02:35:37;;;;;;;15.20;9.05;;;4.00;99.90;;;;;;5022819;28;20045;-72
2022/03/20 02:38:03;;;;;;;12.88;8.07;;;4.10;99.90;;;;;;5074550;28;20032;-72
2022/03/20 02:40:29;;;;;;;12.10;8.70;;;4.00;99.90;;;;;;5068952;28;20028;-72
2022/03/20 02:42:55;;;;;;;14.93;8.75;;;4.00;99.90;;;;;;5057513;28;20039;-72
2022/03/20 02:45:27;;;;;;;13.30;8.98;;;4.00;99.90;;;;;;5074435;28;20040;-72
2022/03/20 02:47:53;;;;;;;14.25;9.05;;;4.00;99.90;;;;;;5037244;28;20035;-72
2022/03/20 02:50:21;;;;;;;16.38;9.13;;;4.00;99.90;;;;;;5055864;28;20036;-72
2022/03/20 02:52:54;;;;;;;13.63;9.07;;;4.00;99.90;;;;;;5049518;28;20044;-72
2022/03/20 02:55:28;;;;;;;12.45;8.70;;;3.90;99.90;;;;;;5041560;28;20044;-73
2022/03/20 02:57:56;;;;;;;15.70;9.70;;;3.90;99.90;;;;;;5044242;28;20036;-72
2022/03/20 03:00:26;;;;;;;20.73;10.35;;;3.90;99.90;;;;;;5054522;28;20033;-72
2022/03/20 03:02:54;;;;;;;14.90;9.70;;;3.90;99.90;;;;;;5071480;28;20034;-71
2022/03/20 03:05:22;;;;;;;15.32;10.23;;;3.80;99.90;;;;;;5049094;28;20044;-71
2022/03/20 03:10:57;;;;;;;15.43;9.48;;;3.90;99.90;;;;;;5071861;28;20061;-70
2022/03/20 03:13:26;;;;;;;15.60;10.07;;;3.90;99.90;;;;;;5053797;28;20480;-72
2022/03/20 03:15:53;;;;;;;18.30;10.35;;;3.80;99.90;;;;;;5071686;28;20528;-72
2022/03/20 03:18:22;;;;;;;18.42;10.80;;;3.90;99.90;;;;;;5060088;28;20033;-72
2022/03/20 03:20:48;;;;;;;15.80;10.50;;;3.90;99.90;;;;;;5054638;28;20029;-71
2022/03/20 03:23:14;;;;;;;14.98;10.50;;;3.80;99.90;;;;;;5038848;28;20047;-71
2022/03/20 03:25:40;;;;;;;15.93;10.13;;;3.80;99.90;;;;;;5033592;28;20082;-71
2022/03/20 03:28:07;;;;;;;17.42;10.95;;;3.80;99.90;;;;;;5056915;28;20927;-71
2022/03/20 03:30:35;;;;;;;17.40;11.00;;;3.80;99.90;;;;;;5032966;28;20044;-72
2022/03/20 03:33:01;;;;;;;18.60;11.30;;;3.80;99.90;;;;;;5053500;28;20316;-72
2022/03/20 03:35:41;;;;;;;16.27;10.70;;;3.80;99.90;;;;;;5073496;28;20035;-72
2022/03/20 03:38:15;;;;;;;16.67;10.35;;;3.80;99.90;;;;;;5050540;28;20100;-72
2022/03/20 03:40:44;;;;;;;18.27;11.10;;;3.70;99.90;;;;;;5034194;28;20036;-72
2022/03/20 03:43:17;;;;;;;17.00;11.50;;;3.70;99.90;;;;;;5071808;28;20440;-72
2022/03/20 03:45:44;;;;;;;19.13;11.27;;;3.70;99.90;;;;;;5052156;28;20540;-73
2022/03/20 03:48:11;;;;;;;22.15;11.82;;;3.70;99.90;;;;;;5052458;28;20046;-72
2022/03/20 03:50:39;;;;;;;22.65;12.02;;;3.70;99.90;;;;;;5052912;28;20662;-70
2022/03/20 03:53:05;;;;;;;16.55;11.90;;;3.60;99.90;;;;;;5056308;28;20488;-72
2022/03/20 03:55:32;;;;;;;15.82;11.10;;;3.60;99.90;;;;;;5054927;28;20049;-72
2022/03/20 03:57:59;;;;;;;16.75;11.88;;;3.60;99.90;;;;;;5053101;28;20039;-71
2022/03/20 04:00:27;;;;;;;16.15;11.35;;;3.60;99.90;;;;;;5050961;28;20033;-71
2022/03/20 04:02:53;;;;;;;18.23;11.23;;;3.60;99.90;;;;;;5066522;28;20036;-71
2022/03/20 04:05:19;;;;;;;20.13;12.15;;;3.50;99.90;;;;;;5056373;28;20024;-72
2022/03/20 04:07:47;;;;;;;16.27;12.30;;;3.40;99.90;;;;;;5055632;28;20043;-72
2022/03/20 04:10:14;;;;;;;19.77;11.52;;;3.50;99.90;;;;;;5062899;28;20040;-72
2022/03/20 04:12:40;;;;;;;19.02;11.85;;;3.50;99.90;;;;;;5049737;28;20485;-72
2022/03/20 04:15:14;;;;;;;21.33;12.75;;;3.50;99.90;;;;;;5053145;28;20496;-72
2022/03/20 04:17:42;;;;;;;20.75;12.85;;;3.40;99.90;;;;;;5056175;28;20539;-72
2022/03/20 04:20:10;;;;;;;18.60;12.63;;;3.50;99.90;;;;;;5050202;28;20516;-72
2022/03/20 04:22:38;;;;;;;19.38;12.55;;;3.50;99.90;;;;;;5052729;28;20045;-75
2022/03/20 04:25:06;;;;;;;19.33;12.50;;;3.40;99.90;;;;;;5018125;28;20043;-69
2022/03/20 04:27:32;;;;;;;19.35;12.63;;;3.40;99.90;;;;;;5042375;28;20408;-72
2022/03/20 04:29:58;;;;;;;21.23;13.50;;;3.40;99.90;;;;;;5054181;28;20510;-73
2022/03/20 04:32:24;;;;;;;20.13;12.50;;;3.30;99.90;;;;;;5050155;28;20522;-72
2022/03/20 04:34:50;;;;;;;21.85;13.27;;;3.30;99.90;;;;;;5056117;28;20093;-72
2022/03/20 04:37:17;;;;;;;21.98;13.43;;;3.30;99.90;;;;;;5056630;28;20036;-73
2022/03/20 04:39:43;;;;;;;19.02;13.07;;;3.30;99.90;;;;;;5049827;28;20516;-72
2022/03/20 04:42:09;;;;;;;20.42;13.57;;;3.30;99.90;;;;;;5053205;28;20464;-72
2022/03/20 04:44:39;;;;;;;19.88;13.48;;;3.30;99.90;;;;;;5051029;28;20044;-72
2022/03/20 04:58:28;;;;;;;20.65;12.82;;;3.30;99.90;;;;;;5035167;28;20040;-72
2022/03/20 05:00:54;;;;;;;23.98;13.98;;;3.10;99.90;;;;;;5060421;28;20515;-72
2022/03/20 05:03:20;;;;;;;20.88;14.00;;;3.10;99.90;;;;;;5057101;28;20128;-73
2022/03/20 05:05:46;;;;;;;21.35;14.48;;;3.10;99.90;;;;;;5054688;28;20154;-72
2022/03/20 05:08:11;;;;;;;23.30;14.95;;;3.10;99.90;;;;;;5053197;28;20098;-72
2022/03/20 05:13:22;;;;;;;22.08;14.85;;;3.10;99.90;;;;;;5049741;28;20040;-71
2022/03/20 05:15:48;;;;;;;21.88;15.27;;;3.10;99.90;;;;;;5055435;28;20051;-74
2022/03/20 05:18:14;;;;;;;20.27;15.05;;;3.20;99.90;;;;;;5021553;28;20051;-72
2022/03/20 05:20:43;;;;;;;21.52;14.77;;;3.10;99.90;;;;;;5076321;28;20040;-73
2022/03/20 05:23:09;;;;;;;25.15;15.77;;;3.10;99.90;;;;;;5040675;28;20071;-71
2022/03/20 05:25:36;;;;;;;23.65;14.73;;;3.10;99.90;;;;;;5055420;28;20082;-71
2022/03/20 05:28:02;;;;;;;24.65;15.63;;;3.10;99.90;;;;;;5039627;28;20416;-72
2022/03/20 05:30:28;;;;;;;21.85;15.10;;;3.00;99.90;;;;;;5048590;28;20044;-72
2022/03/20 05:32:55;;;;;;;24.95;15.13;;;3.10;99.90;;;;;;5024920;28;20447;-71
2022/03/20 05:35:21;;;;;;;23.38;15.50;;;3.00;99.90;;;;;;5037162;28;20097;-71
2022/03/20 05:37:47;;;;;;;21.42;15.43;;;3.00;99.90;;;;;;5046542;28;20044;-71
2022/03/20 05:40:14;;;;;;;22.88;15.38;;;3.00;99.90;;;;;;5038940;28;20041;-71
2022/03/20 05:42:41;;;;;;;22.63;14.32;;;3.00;99.90;;;;;;5059187;28;20467;-72
2022/03/20 05:45:10;;;;;;;22.35;15.57;;;3.00;99.90;;;;;;5075335;28;20078;-72
2022/03/20 05:47:37;;;;;;;22.83;15.38;;;2.90;99.90;;;;;;5056126;28;20047;-71
2022/03/20 05:50:05;;;;;;;22.15;16.08;;;2.90;99.90;;;;;;5050047;28;20404;-72
2022/03/20 05:52:33;;;;;;;21.15;15.05;;;2.90;99.90;;;;;;5056245;28;20392;-71
2022/03/20 05:55:00;;;;;;;24.27;16.42;;;2.90;99.90;;;;;;5055857;28;20047;-72
2022/03/20 06:00:18;;;;;;;22.95;16.02;;;2.90;99.90;;;;;;5064244;28;20051;-72
2022/03/20 06:02:44;;;;;;;21.45;15.48;;;2.90;99.90;;;;;;5049050;28;20040;-72
2022/03/20 06:05:11;;;;;;;22.85;15.60;;;2.80;99.90;;;;;;5049085;28;20036;-72
2022/03/20 06:07:47;;;;;;;22.63;15.88;;;2.80;99.90;;;;;;5052687;28;20540;-72
2022/03/20 06:10:17;;;;;;;23.20;16.60;;;2.80;99.90;;;;;;5054015;28;20528;-72
2022/03/20 06:12:44;;;;;;;27.20;15.93;;;2.80;99.90;;;;;;5051711;28;20484;-71
2022/03/20 06:15:10;;;;;;;21.50;15.38;;;2.80;99.90;;;;;;5054561;28;20054;-71
2022/03/20 06:17:41;;;;;;;21.30;15.75;;;2.90;99.90;;;;;;5055534;28;20044;-71
2022/03/20 06:20:08;;;;;;;25.02;16.92;;;2.90;99.90;;;;;;5056614;28;20052;-71
2022/03/20 06:22:35;;;;;;;26.08;17.00;;;2.90;99.90;;;;;;5053501;28;20036;-71
2022/03/20 06:25:15;;;;;;;23.40;16.27;;;2.80;99.90;;;;;;5051499;28;20493;-74
2022/03/20 06:27:52;;;;;;;24.02;16.80;;;2.90;99.90;;;;;;5032689;28;20094;-71
2022/03/20 06:30:19;;;;;;;23.35;16.23;;;2.80;99.90;;;;;;5052543;28;20036;-71
2022/03/20 06:32:46;;;;;;;25.88;17.27;;;2.90;99.90;;;;;;5059656;28;20492;-70
2022/03/20 06:35:13;;;;;;;22.70;16.80;;;2.90;99.90;;;;;;5024993;28;20040;-73
2022/03/20 06:37:43;;;;;;;29.13;17.05;;;2.90;99.90;;;;;;5069582;28;20485;-71
2022/03/20 06:40:09;;;;;;;24.27;16.50;;;2.90;99.90;;;;;;5049948;28;20044;-72
2022/03/20 06:42:35;;;;;;;22.65;16.65;;;3.00;99.90;;;;;;5069151;28;20040;-69
2022/03/20 06:45:03;;;;;;;22.83;16.20;;;3.00;99.90;;;;;;5051188;28;20043;-72
2022/03/20 06:47:32;;;;;;;26.88;17.33;;;3.00;99.90;;;;;;5046675;28;20028;-72
2022/03/20 06:49:59;;;;;;;23.08;16.38;;;3.00;99.90;;;;;;5052181;28;20028;-71
2022/03/20 06:52:28;;;;;;;26.23;17.42;;;3.10;99.90;;;;;;5052989;28;20049;-72
2022/03/20 06:54:56;;;;;;;25.10;17.30;;;3.20;99.90;;;;;;5049154;28;20108;-71
2022/03/20 06:57:23;;;;;;;23.63;17.33;;;3.30;99.90;;;;;;5020928;28;20048;-71
2022/03/20 06:59:49;;;;;;;24.33;16.80;;;3.30;99.90;;;;;;5055497;28;20041;-72
2022/03/20 07:02:16;;;;;;;23.00;17.23;;;3.30;99.90;;;;;;5048700;28;20071;-72
2022/03/20 07:04:41;;;;;;;30.88;17.20;;;3.30;99.90;;;;;;5048977;28;20162;-72
2022/03/20 07:07:07;;;;;;;23.23;16.73;;;3.40;99.90;;;;;;5053753;28;20096;-71
2022/03/20 07:09:34;;;;;;;24.77;16.73;;;3.40;99.90;;;;;;5053511;28;20052;-72
2022/03/20 07:11:59;;;;;;;24.20;16.30;;;3.40;99.90;;;;;;5053057;28;20119;-72
2022/03/20 07:14:25;;;;;;;21.98;16.55;;;3.50;99.90;;;;;;5051829;28;20052;-71
2022/03/20 07:16:53;;;;;;;22.83;16.80;;;3.50;99.90;;;;;;5047595;28;20071;-71
2022/03/20 07:19:18;;;;;;;24.75;18.58;;;3.50;99.90;;;;;;5037150;28;20041;-70
2022/03/20 07:21:44;;;;;;;22.17;16.25;;;3.70;99.90;;;;;;5052805;28;20104;-72
2022/03/20 07:24:09;;;;;;;23.55;16.77;;;3.70;99.90;;;;;;5056252;28;20040;-71
2022/03/20 07:29:31;;;;;;;21.77;16.35;;;3.80;99.90;;;;;;5047699;28;20460;-72
2022/03/20 07:31:58;;;;;;;24.40;16.27;;;3.90;99.90;;;;;;5053924;28;20043;-72
2022/03/20 07:34:24;;;;;;;24.27;16.63;;;4.00;99.90;;;;;;5071616;28;20071;-72
2022/03/20 07:36:50;;;;;;;25.20;16.60;;;4.00;99.90;;;;;;5046875;28;20152;-72
2022/03/20 07:39:17;;;;;;;22.75;16.50;;;4.10;99.90;;;;;;5055074;28;20044;-72
2022/03/20 07:41:43;;;;;;;26.70;17.48;;;4.20;99.90;;;;;;5053944;28;20520;-72
2022/03/20 07:44:09;;;;;;;24.38;17.67;;;4.20;99.90;;;;;;5051504;28;20101;-71
2022/03/20 07:46:36;;;;;;;24.83;18.98;;;4.30;99.90;;;;;;5045728;28;20044;-72
2022/03/20 07:49:03;;;;;;;24.20;16.70;;;4.30;99.90;;;;;;5024197;28;20048;-72
2022/03/20 07:51:30;;;;;;;26.15;17.27;;;4.40;99.90;;;;;;5039441;28;20226;-71
2022/03/20 07:53:57;;;;;;;26.52;16.65;;;4.40;99.90;;;;;;5055961;28;20075;-72
2022/03/20 07:56:23;;;;;;;25.48;16.42;;;4.50;99.90;;;;;;5047339;28;20043;-72
2022/03/20 07:58:52;;;;;;;26.25;17.30;;;4.60;99.90;;;;;;5054525;28;20048;-73
2022/03/20 08:01:17;;;;;;;25.35;17.58;;;4.70;99.90;;;;;;5051695;28;20048;-73
2022/03/20 08:03:43;;;;;;;25.48;16.63;;;4.70;99.90;;;;;;5048959;28;20044;-73
2022/03/20 08:06:09;;;;;;;24.35;16.77;;;4.90;99.90;;;;;;5045602;28;20099;-71
2022/03/20 08:08:39;;;;;;;24.73;17.23;;;5.00;99.90;;;;;;5018604;28;20032;-72
2022/03/20 08:11:05;;;;;;;26.42;18.02;;;5.00;99.90;;;;;;5069298;28;20082;-72
2022/03/20 08:13:31;;;;;;;23.95;16.67;;;5.20;99.90;;;;;;5054868;28;20134;-73
2022/03/20 08:15:57;;;;;;;25.60;17.30;;;5.30;99.90;;;;;;5065048;28;20037;-72
2022/03/20 08:18:23;;;;;;;26.15;16.85;;;5.30;99.70;;;;;;5020085;28;20473;-72
2022/03/20 08:20:49;;;;;;;26.50;17.08;;;5.50;98.40;;;;;;5054220;28;20040;-72
2022/03/20 08:23:14;;;;;;;22.38;16.60;;;5.60;98.80;;;;;;5049831;28;20072;-71
2022/03/20 08:25:42;;;;;;;24.17;16.52;;;5.60;99.40;;;;;;5067302;28;20072;-72
2022/03/20 08:28:09;;;;;;;31.73;17.27;;;5.70;97.80;;;;;;5053268;28;20497;-72
2022/03/20 08:30:36;;;;;;;23.15;17.02;;;5.80;95.30;;;;;;5053195;28;20037;-71
2022/03/20 08:33:01;;;;;;;24.58;16.95;;;5.80;93.20;;;;;;5075304;28;20122;-71
2022/03/20 08:35:27;;;;;;;23.92;17.05;;;5.80;93.90;;;;;;5057658;28;20124;-72
2022/03/20 08:37:53;;;;;;;28.77;17.83;;;5.90;94.40;;;;;;5053637;28;20049;-71
2022/03/20 08:40:20;;;;;;;29.15;17.40;;;6.00;95.50;;;;;;5056413;28;20039;-72
2022/03/20 08:42:54;;;;;;;24.17;17.60;;;6.10;94.30;;;;;;5042074;28;20042;-72
2022/03/20 08:45:24;;;;;;;26.15;17.85;;;6.20;91.90;;;;;;5055179;28;20133;-72
2022/03/20 08:47:50;;;;;;;23.70;17.83;;;6.30;91.50;;;;;;5053432;28;20064;-71
2022/03/20 08:50:18;;;;;;;23.98;17.77;;;6.40;91.00;;;;;;5057104;28;20048;-72
2022/03/20 08:52:46;;;;;;;24.88;18.20;;;6.60;90.70;;;;;;5054066;28;20035;-72
2022/03/20 08:55:13;;;;;;;25.33;17.67;;;6.70;90.60;;;;;;5058561;28;20060;-74
2022/03/20 08:57:43;;;;;;;22.77;17.10;;;6.80;87.00;;;;;;5054994;28;20036;-71
2022/03/20 09:00:12;;;;;;;28.05;18.50;;;6.90;82.30;;;;;;5048862;28;20055;-71
2022/03/20 09:02:38;;;;;;;24.90;17.60;;;7.00;83.70;;;;;;5057895;28;20044;-71
2022/03/20 09:05:05;;;;;;;27.08;17.45;;;7.10;76.80;;;;;;5048943;28;20059;-70
2022/03/20 09:07:31;;;;;;;25.25;17.83;;;7.10;77.30;;;;;;5056627;28;20124;-71
2022/03/20 09:09:57;;;;;;;25.33;18.35;;;7.10;76.70;;;;;;5041840;28;20066;-71
2022/03/20 09:12:23;;;;;;;23.65;17.67;;;7.30;76.10;;;;;;5039936;28;20054;-71
2022/03/20 09:14:49;;;;;;;27.17;18.33;;;7.30;77.70;;;;;;5052660;28;20417;-72
2022/03/20 09:19:59;;;;;;;25.08;18.73;;;7.60;73.50;;;;;;5055263;28;20048;-71
2022/03/20 09:22:27;;;;;;;27.25;18.80;;;7.70;70.90;;;;;;5075979;28;20040;-74
2022/03/20 09:24:53;;;;;;;25.92;18.75;;;7.80;71.80;;;;;;5044150;28;20040;-72
2022/03/20 09:27:19;;;;;;;23.75;18.40;;;7.80;72.60;;;;;;5057156;28;20055;-72
2022/03/20 09:29:45;;;;;;;26.40;18.90;;;8.00;70.90;;;;;;5060293;28;20056;-70
2022/03/20 09:32:12;;;;;;;28.45;19.13;;;8.10;67.50;;;;;;5042275;28;20043;-72
2022/03/20 09:34:38;;;;;;;26.23;18.67;;;8.20;67.50;;;;;;5058390;28;20039;-70
2022/03/20 09:37:03;;;;;;;26.98;18.90;;;8.30;65.20;;;;;;5041718;28;20127;-71
2022/03/20 09:39:29;;;;;;;25.20;18.75;;;8.30;66.10;;;;;;5083111;28;20036;-72
2022/03/20 09:41:56;;;;;;;26.90;18.52;;;8.40;65.70;;;;;;5059475;28;20115;-71
2022/03/20 09:44:25;;;;;;;26.52;19.13;;;8.60;64.60;;;;;;5076574;28;20059;-71
2022/03/20 09:46:52;;;;;;;25.58;18.98;;;8.60;63.10;;;;;;5057993;28;20449;-72
2022/03/20 09:49:20;;;;;;;26.42;18.48;;;8.70;63.20;;;;;;5057009;28;20047;-73
2022/03/20 09:51:46;;;;;;;27.90;19.77;;;8.70;63.20;;;;;;5038093;28;20036;-73
2022/03/20 09:54:14;;;;;;;28.30;19.00;;;8.80;65.30;;;;;;5070743;28;20044;-73
2022/03/20 09:56:42;;;;;;;28.88;20.60;;;8.90;64.20;;;;;;5050936;28;20165;-72
2022/03/20 09:59:09;;;;;;;27.65;19.83;;;8.90;62.10;;;;;;5026280;28;20039;-72
2022/03/20 10:01:36;;;;;;;27.60;19.40;;;9.10;62.90;;;;;;5027821;28;20067;-71
2022/03/20 10:04:15;;;;;;;25.65;19.33;;;9.10;61.10;;;;;;5039139;28;20459;-72
2022/03/20 10:06:42;;;;;;;28.35;19.88;;;9.20;60.50;;;;;;5049072;28;20385;-71
2022/03/20 10:09:10;;;;;;;33.88;20.50;;;9.20;61.40;;;;;;5027280;28;20390;-73
2022/03/20 10:11:51;;;;;;;25.15;20.00;;;9.30;60.20;;;;;;5024481;28;20072;-72
2022/03/20 10:14:22;;;;;;;25.13;18.73;;;9.40;59.70;;;;;;5030468;28;20556;-73
2022/03/20 10:17:07;;;;;;;25.77;19.73;;;9.50;59.80;;;;;;5032055;28;20059;-72
2022/03/20 10:19:34;;;;;;;26.65;19.98;;;9.60;58.70;;;;;;5040795;28;20047;-71
2022/03/20 10:22:01;;;;;;;26.10;19.67;;;9.70;59.70;;;;;;5029779;28;20042;-71
2022/03/20 10:24:29;;;;;;;29.02;19.65;;;9.80;58.70;;;;;;5041849;28;20147;-72
2022/03/20 10:27:01;;;;;;;24.92;19.00;;;9.90;57.70;;;;;;5074445;28;20086;-72
2022/03/20 10:29:28;;;;;;;28.80;19.77;;;9.90;58.50;;;;;;5070807;28;20033;-72
2022/03/20 10:31:58;;;;;;;28.38;20.35;;;10.10;58.80;;;;;;5075880;28;20037;-72
2022/03/20 10:34:24;;;;;;;28.30;19.83;;;10.20;59.30;;;;;;5025032;28;20051;-73
2022/03/20 10:36:51;;;;;;;27.17;20.95;;;10.30;57.00;;;;;;5077704;28;20044;-71
2022/03/20 10:39:27;;;;;;;32.70;20.63;;;10.50;55.50;;;;;;5057638;28;20492;-72
2022/03/20 10:41:56;;;;;;;28.70;20.42;;;10.50;55.90;;;;;;5061774;28;20039;-73
2022/03/20 10:44:25;;;;;;;25.83;20.45;;;10.50;55.10;;;;;;5057124;28;20045;-72
2022/03/20 10:47:10;;;;;;;28.77;20.48;;;10.60;55.40;;;;;;5057384;28;20037;-73
2022/03/20 10:49:37;;;;;;;27.13;20.35;;;10.90;56.20;;;;;;5071346;28;20036;-72
2022/03/20 10:52:08;;;;;;;25.92;19.50;;;11.10;56.40;;;;;;5077619;28;20500;-72
2022/03/20 10:54:43;;;;;;;25.98;21.55;;;11.30;54.10;;;;;;5058969;28;20040;-71
2022/03/20 10:57:11;;;;;;;28.27;20.52;;;11.40;54.10;;;;;;5026876;28;20065;-75
2022/03/20 10:59:38;;;;;;;27.42;20.83;;;11.50;54.00;;;;;;5041426;28;20104;-72
2022/03/20 11:02:06;;;;;;;26.08;21.20;;;11.60;52.30;;;;;;5020079;28;20135;-72
2022/03/20 11:04:35;;;;;;;26.13;20.23;;;11.70;52.70;;;;;;5041168;28;20060;-71
2022/03/20 11:07:06;;;;;;;28.15;22.10;;;11.80;52.00;;;;;;5054919;28;20048;-74
2022/03/20 11:09:32;;;;;;;27.45;21.20;;;12.00;52.30;;;;;;5045054;28;20032;-72
2022/03/20 11:11:59;;;;;;;27.88;20.35;;;12.20;52.10;;;;;;5076634;28;20071;-71
2022/03/20 11:14:26;;;;;;;26.98;21.38;;;12.40;53.20;;;;;;5077229;28;20116;-72
2022/03/20 11:16:55;;;;;;;27.50;19.83;;;12.50;50.40;;;;;;5059796;28;20032;-72
2022/03/20 11:19:28;;;;;;;29.77;20.13;;;12.70;50.70;;;;;;5036304;28;20082;-72
2022/03/20 11:22:03;;;;;;;26.77;20.63;;;12.70;49.70;;;;;;5060943;28;20040;-72
2022/03/20 11:24:30;;;;;;;25.77;19.75;;;12.70;49.40;;;;;;5071884;28;20580;-72
2022/03/20 11:27:01;;;;;;;30.20;20.35;;;12.80;51.10;;;;;;5059365;28;20036;-73
2022/03/20 11:29:42;;;;;;;24.75;20.55;;;12.80;50.40;;;;;;5067167;28;20043;-72
2022/03/20 11:32:09;;;;;;;28.70;21.10;;;12.90;49.20;;;;;;5074992;28;20032;-72
2022/03/20 11:34:36;;;;;;;26.77;20.42;;;13.00;48.40;;;;;;5055341;28;20488;-72
2022/03/20 11:37:15;;;;;;;25.33;20.25;;;13.10;48.50;;;;;;5037674;28;20045;-73
2022/03/20 11:40:25;;;;;;;26.13;20.45;;;13.10;48.20;;;;;;5074811;28;20492;-80
2022/03/20 11:43:20;;;;;;;30.65;21.05;;;13.20;47.80;;;;;;5075075;28;20048;-82
2022/03/20 11:46:15;;;;;;;26.65;20.30;;;13.20;48.00;;;;;;5041939;28;20114;-81
2022/03/20 11:48:41;;;;;;;25.33;20.42;;;13.20;49.70;;;;;;5059303;28;20467;-82
2022/03/20 11:51:07;;;;;;;29.08;20.75;;;13.20;49.10;;;;;;5060887;28;20032;-81
2022/03/20 11:53:36;;;;;;;27.63;22.38;;;13.30;49.60;;;;;;5039567;28;20600;-82
2022/03/20 11:56:02;;;;;;;23.63;19.58;;;13.40;49.20;;;;;;5056521;28;20043;-80
2022/03/20 11:58:36;;;;;;;28.75;20.65;;;13.60;49.10;;;;;;5058429;28;20056;-80
2022/03/20 12:01:05;;;;;;;26.90;20.25;;;13.60;48.20;;;;;;5044881;28;20277;-81
2022/03/20 12:03:54;;;;;;;31.00;21.13;;;13.70;48.70;;;;;;5056557;28;20021;-80
2022/03/20 12:06:39;;;;;;;30.00;21.63;;;13.90;48.70;;;;;;5054660;28;20036;-80
2022/03/20 12:09:10;;;;;;;25.67;20.77;;;14.00;48.70;;;;;;5039804;28;20044;-82
2022/03/20 12:12:07;;;;;;;32.47;20.98;;;14.10;49.10;;;;;;5056761;28;20036;-81
2022/03/20 12:14:41;;;;;;;25.45;20.73;;;14.20;48.90;;;;;;5061502;28;20047;-82
2022/03/20 12:17:08;;;;;;;29.10;20.95;;;14.30;48.30;;;;;;5057668;28;20040;-82
2022/03/20 12:19:44;;;;;;;23.80;20.48;;;14.30;47.30;;;;;;5069170;28;20036;-80
2022/03/20 12:22:29;;;;;;;26.48;21.33;;;14.30;47.70;;;;;;5060907;28;20064;-82
2022/03/20 12:25:03;;;;;;;24.75;20.65;;;14.50;48.60;;;;;;5057699;28;20061;-81
2022/03/20 12:27:31;;;;;;;25.58;20.85;;;14.50;48.50;;;;;;5042875;28;20040;-81
2022/03/20 12:30:10;;;;;;;25.15;20.42;;;14.50;46.40;;;;;;5059463;28;20084;-80
2022/03/20 12:32:49;;;;;;;25.88;20.73;;;14.50;45.50;;;;;;5067443;28;20025;-80
2022/03/20 12:35:23;;;;;;;26.63;21.42;;;14.20;45.90;;;;;;5053222;28;20043;-79
2022/03/20 12:37:50;;;;;;;26.20;20.92;;;14.00;47.10;;;;;;5076723;28;20060;-77
2022/03/20 12:40:30;;;;;;;26.00;20.52;;;13.70;47.20;;;;;;5073201;28;20043;-78
2022/03/20 12:43:08;;;;;;;28.48;20.92;;;13.50;48.40;;;;;;5067619;28;20032;-77
2022/03/20 12:45:46;;;;;;;26.15;21.13;;;13.30;49.30;;;;;;5069638;28;20056;-77
2022/03/20 12:48:17;;;;;;;27.98;21.90;;;13.20;49.10;;;;;;5049415;28;20040;-77
2022/03/20 12:50:46;;;;;;;27.73;21.52;;;13.10;48.60;;;;;;5067086;28;20035;-77
2022/03/20 12:53:21;;;;;;;27.10;21.83;;;13.00;49.00;;;;;;5067941;28;20064;-77
2022/03/20 12:55:55;;;;;;;30.75;22.45;;;12.80;49.80;;;;;;5055125;28;20040;-77
2022/03/20 12:58:21;;;;;;;26.75;21.60;;;12.70;50.30;;;;;;5070304;28;20051;-77
2022/03/20 13:00:47;;;;;;;28.35;22.52;;;12.70;50.00;;;;;;5069658;28;20040;-76
2022/03/20 13:03:15;;;;;;;26.92;21.52;;;12.50;49.90;;;;;;5066978;28;20066;-77
2022/03/20 13:05:48;;;;;;;29.10;21.90;;;12.40;50.90;;;;;;5064864;28;20037;-77
2022/03/20 13:08:22;;;;;;;28.05;21.92;;;12.30;50.60;;;;;;5065398;28;20067;-77
2022/03/20 13:10:50;;;;;;;31.15;22.27;;;12.30;51.30;;;;;;5061603;28;20048;-78